sensor_id;sensor_type;location;lat;lon;timestamp;pressure;altitude;pressure_sealevel;temperature;humidity
4085;BME280;2057;50.858;6.572;2023-12-04T00:00:28;100180.53;;;-0.23;100.00
4085;BME280;2057;50.858;6.572;2023-12-04T00:02:53;100178.97;;;-0.32;100.00
4085;BME280;2057;50.858;6.572;2023-12-04T00:05:19;100174.13;;;-0.30;100.00
4085;BME280;2057;50.858;6.572;2023-12-04T00:07:44;100173.84;;;-0.14;100.00
4085;BME280;2057;50.858;6.572;2023-12-04T00:10:09;100177.28;;;-0.22;100.00
4085;BME280;2057;50.858;6.572;2023-12-04T00:12:35;100180.31;;;-0.16;100.00
4085;BME280;2057;50.858;6.572;2023-12-04T00:15:00;100176.69;;;-0.20;100.00
4085;BME280;2057;50.858;6.572;2023-12-04T00:17:27;100182.53;;;-0.19;100.00
4085;BME280;2057;50.858;6.572;2023-12-04T00:19:53;100175.31;;;-0.16;100.00
4085;BME280;2057;50.858;6.572;2023-12-04T00:22:18;100171.34;;;-0.14;100.00
4085;BME280;2057;50.858;6.572;2023-12-04T00:24:43;100164.03;;;-0.21;100.00
4085;BME280;2057;50.858;6.572;2023-12-04T00:27:10;100162.03;;;-0.25;100.00
4085;BME280;2057;50.858;6.572;2023-12-04T00:29:35;100157.06;;;-0.25;100.00
4085;BME280;2057;50.858;6.572;2023-12-04T00:32:05;100156.78;;;-0.28;100.00
4085;BME280;2057;50.858;6.572;2023-12-04T00:34:30;100142.56;;;-0.29;100.00
4085;BME280;2057;50.858;6.572;2023-12-04T00:37:03;100147.09;;;-0.25;100.00
4085;BME280;2057;50.858;6.572;2023-12-04T00:39:29;100140.34;;;-0.26;100.00
4085;BME280;2057;50.858;6.572;2023-12-04T00:41:54;100134.63;;;-0.25;100.00
4085;BME280;2057;50.858;6.572;2023-12-04T00:44:22;100134.81;;;-0.33;100.00
4085;BME280;2057;50.858;6.572;2023-12-04T00:46:55;100135.47;;;-0.25;100.00
4085;BME280;2057;50.858;6.572;2023-12-04T00:49:25;100126.84;;;-0.28;100.00
4085;BME280;2057;50.858;6.572;2023-12-04T00:51:50;100121.63;;;-0.32;100.00
4085;BME280;2057;50.858;6.572;2023-12-04T00:54:16;100123.63;;;-0.27;100.00
4085;BME280;2057;50.858;6.572;2023-12-04T00:56:41;100126.34;;;-0.35;100.00
4085;BME280;2057;50.858;6.572;2023-12-04T00:59:11;100132.06;;;-0.36;100.00
4085;BME280;2057;50.858;6.572;2023-12-04T01:01:37;100126.69;;;-0.40;100.00
4085;BME280;2057;50.858;6.572;2023-12-04T01:04:05;100121.47;;;-0.33;100.00
4085;BME280;2057;50.858;6.572;2023-12-04T01:06:33;100115.63;;;-0.34;100.00
4085;BME280;2057;50.858;6.572;2023-12-04T01:08:58;100116.41;;;-0.24;100.00
4085;BME280;2057;50.858;6.572;2023-12-04T01:11:24;100110.91;;;-0.30;100.00
4085;BME280;2057;50.858;6.572;2023-12-04T01:13:52;100104.28;;;-0.30;100.00
4085;BME280;2057;50.858;6.572;2023-12-04T01:16:17;100105.66;;;-0.34;100.00
4085;BME280;2057;50.858;6.572;2023-12-04T01:18:43;100095.44;;;-0.26;100.00
4085;BME280;2057;50.858;6.572;2023-12-04T01:21:08;100095.44;;;-0.26;100.00
4085;BME280;2057;50.858;6.572;2023-12-04T01:23:35;100090.06;;;-0.31;100.00
4085;BME280;2057;50.858;6.572;2023-12-04T01:26:04;100087.91;;;-0.37;100.00
4085;BME280;2057;50.858;6.572;2023-12-04T01:28:29;100087.41;;;-0.43;100.00
4085;BME280;2057;50.858;6.572;2023-12-04T01:30:57;100091.38;;;-0.45;100.00
4085;BME280;2057;50.858;6.572;2023-12-04T01:33:22;100091.03;;;-0.39;100.00
4085;BME280;2057;50.858;6.572;2023-12-04T01:35:50;100081.91;;;-0.39;100.00
4085;BME280;2057;50.858;6.572;2023-12-04T01:38:18;100087.06;;;-0.37;100.00
4085;BME280;2057;50.858;6.572;2023-12-04T01:40:47;100085.31;;;-0.38;100.00
4085;BME280;2057;50.858;6.572;2023-12-04T01:43:12;100078.94;;;-0.35;100.00
4085;BME280;2057;50.858;6.572;2023-12-04T01:45:40;100074.97;;;-0.33;100.00
4085;BME280;2057;50.858;6.572;2023-12-04T01:48:06;100078.47;;;-0.30;100.00
4085;BME280;2057;50.858;6.572;2023-12-04T01:50:34;100073.22;;;-0.34;100.00
4085;BME280;2057;50.858;6.572;2023-12-04T01:52:59;100070.47;;;-0.37;100.00
4085;BME280;2057;50.858;6.572;2023-12-04T01:55:25;100072.72;;;-0.40;100.00
4085;BME280;2057;50.858;6.572;2023-12-04T01:57:59;100077.19;;;-0.36;100.00
4085;BME280;2057;50.858;6.572;2023-12-04T02:00:30;100072.81;;;-0.38;100.00
4085;BME280;2057;50.858;6.572;2023-12-04T02:02:58;100068.31;;;-0.42;100.00
4085;BME280;2057;50.858;6.572;2023-12-04T02:05:32;100064.22;;;-0.42;100.00
4085;BME280;2057;50.858;6.572;2023-12-04T02:07:59;100069.72;;;-0.36;100.00
4085;BME280;2057;50.858;6.572;2023-12-04T02:10:27;100061.63;;;-0.33;100.00
4085;BME280;2057;50.858;6.572;2023-12-04T02:12:56;100067.97;;;-0.37;100.00
4085;BME280;2057;50.858;6.572;2023-12-04T02:15:22;100061.50;;;-0.35;100.00
4085;BME280;2057;50.858;6.572;2023-12-04T02:17:50;100060.94;;;-0.51;100.00
4085;BME280;2057;50.858;6.572;2023-12-04T02:20:16;100056.41;;;-0.55;100.00
4085;BME280;2057;50.858;6.572;2023-12-04T02:22:42;100052.38;;;-0.64;100.00
4085;BME280;2057;50.858;6.572;2023-12-04T02:25:08;100046.66;;;-0.63;100.00
4085;BME280;2057;50.858;6.572;2023-12-04T02:27:44;100044.91;;;-0.64;100.00
4085;BME280;2057;50.858;6.572;2023-12-04T02:30:12;100045.75;;;-0.73;100.00
4085;BME280;2057;50.858;6.572;2023-12-04T02:32:43;100041.16;;;-0.69;100.00
4085;BME280;2057;50.858;6.572;2023-12-04T02:35:14;100042.41;;;-0.64;100.00
4085;BME280;2057;50.858;6.572;2023-12-04T02:37:43;100030.28;;;-0.69;100.00
4085;BME280;2057;50.858;6.572;2023-12-04T02:40:10;100030.22;;;-0.60;100.00
4085;BME280;2057;50.858;6.572;2023-12-04T02:42:36;100040.22;;;-0.80;100.00
4085;BME280;2057;50.858;6.572;2023-12-04T02:45:09;100037.41;;;-0.74;100.00
4085;BME280;2057;50.858;6.572;2023-12-04T02:47:37;100033.16;;;-0.75;100.00
4085;BME280;2057;50.858;6.572;2023-12-04T02:50:03;100030.38;;;-0.78;100.00
4085;BME280;2057;50.858;6.572;2023-12-04T02:52:28;100029.66;;;-0.77;100.00
4085;BME280;2057;50.858;6.572;2023-12-04T02:54:53;100030.00;;;-0.83;100.00
4085;BME280;2057;50.858;6.572;2023-12-04T02:57:21;100021.16;;;-0.79;100.00
4085;BME280;2057;50.858;6.572;2023-12-04T02:59:48;100009.19;;;-0.83;100.00
4085;BME280;2057;50.858;6.572;2023-12-04T03:02:13;100015.44;;;-0.78;100.00
4085;BME280;2057;50.858;6.572;2023-12-04T03:04:39;100016.53;;;-0.85;100.00
4085;BME280;2057;50.858;6.572;2023-12-04T03:07:04;99999.47;;;-0.80;100.00
4085;BME280;2057;50.858;6.572;2023-12-04T03:09:32;99995.44;;;-0.88;100.00
4085;BME280;2057;50.858;6.572;2023-12-04T03:11:57;99994.59;;;-0.89;100.00
4085;BME280;2057;50.858;6.572;2023-12-04T03:14:22;99989.72;;;-0.87;100.00
4085;BME280;2057;50.858;6.572;2023-12-04T03:16:48;99988.53;;;-0.72;100.00
4085;BME280;2057;50.858;6.572;2023-12-04T03:19:15;99984.88;;;-0.86;100.00
4085;BME280;2057;50.858;6.572;2023-12-04T03:21:41;99984.53;;;-0.80;100.00
4085;BME280;2057;50.858;6.572;2023-12-04T03:24:06;99981.81;;;-0.73;100.00
4085;BME280;2057;50.858;6.572;2023-12-04T03:26:31;99973.81;;;-0.79;100.00
4085;BME280;2057;50.858;6.572;2023-12-04T03:28:57;99974.78;;;-0.87;100.00
4085;BME280;2057;50.858;6.572;2023-12-04T03:31:23;99972.56;;;-0.84;100.00
4085;BME280;2057;50.858;6.572;2023-12-04T03:33:50;99962.59;;;-0.84;100.00
4085;BME280;2057;50.858;6.572;2023-12-04T03:36:20;99966.16;;;-0.91;100.00
4085;BME280;2057;50.858;6.572;2023-12-04T03:38:46;99968.56;;;-0.82;100.00
4085;BME280;2057;50.858;6.572;2023-12-04T03:41:14;99974.56;;;-0.80;100.00
4085;BME280;2057;50.858;6.572;2023-12-04T03:43:40;99964.34;;;-0.83;100.00
4085;BME280;2057;50.858;6.572;2023-12-04T03:46:10;99965.56;;;-0.88;100.00
4085;BME280;2057;50.858;6.572;2023-12-04T03:48:35;99957.34;;;-0.87;100.00
4085;BME280;2057;50.858;6.572;2023-12-04T03:51:00;99954.56;;;-0.90;100.00
4085;BME280;2057;50.858;6.572;2023-12-04T03:53:26;99961.41;;;-0.98;100.00
4085;BME280;2057;50.858;6.572;2023-12-04T03:55:51;99953.72;;;-0.91;100.00
4085;BME280;2057;50.858;6.572;2023-12-04T03:58:17;99946.53;;;-0.77;100.00
4085;BME280;2057;50.858;6.572;2023-12-04T04:00:42;99949.13;;;-0.86;100.00
4085;BME280;2057;50.858;6.572;2023-12-04T04:03:09;99947.88;;;-0.81;100.00
4085;BME280;2057;50.858;6.572;2023-12-04T04:05:34;99936.94;;;-0.73;100.00
4085;BME280;2057;50.858;6.572;2023-12-04T04:08:00;99932.53;;;-0.86;100.00
4085;BME280;2057;50.858;6.572;2023-12-04T04:10:25;99922.91;;;-1.02;100.00
4085;BME280;2057;50.858;6.572;2023-12-04T04:12:51;99929.47;;;-1.02;100.00
4085;BME280;2057;50.858;6.572;2023-12-04T04:15:19;99928.13;;;-0.99;100.00
4085;BME280;2057;50.858;6.572;2023-12-04T04:17:49;99927.88;;;-1.02;100.00
4085;BME280;2057;50.858;6.572;2023-12-04T04:20:17;99928.13;;;-0.99;100.00
4085;BME280;2057;50.858;6.572;2023-12-04T04:22:42;99928.53;;;-0.94;100.00
4085;BME280;2057;50.858;6.572;2023-12-04T04:25:11;99929.03;;;-0.98;100.00
4085;BME280;2057;50.858;6.572;2023-12-04T04:27:43;99920.41;;;-1.02;100.00
4085;BME280;2057;50.858;6.572;2023-12-04T04:30:09;99918.78;;;-1.01;100.00
4085;BME280;2057;50.858;6.572;2023-12-04T04:32:35;99914.88;;;-1.08;100.00
4085;BME280;2057;50.858;6.572;2023-12-04T04:35:00;99918.00;;;-1.11;100.00
4085;BME280;2057;50.858;6.572;2023-12-04T04:37:28;99912.94;;;-1.02;100.00
4085;BME280;2057;50.858;6.572;2023-12-04T04:39:53;99915.16;;;-1.05;100.00
4085;BME280;2057;50.858;6.572;2023-12-04T04:42:18;99919.06;;;-0.98;100.00
4085;BME280;2057;50.858;6.572;2023-12-04T04:44:53;99907.22;;;-1.01;100.00
4085;BME280;2057;50.858;6.572;2023-12-04T04:47:29;99915.38;;;-1.12;100.00
4085;BME280;2057;50.858;6.572;2023-12-04T04:49:54;99912.28;;;-1.09;100.00
4085;BME280;2057;50.858;6.572;2023-12-04T04:52:22;99910.75;;;-1.18;100.00
4085;BME280;2057;50.858;6.572;2023-12-04T04:54:49;99904.81;;;-1.09;100.00
4085;BME280;2057;50.858;6.572;2023-12-04T04:57:15;99901.44;;;-1.10;100.00
4085;BME280;2057;50.858;6.572;2023-12-04T04:59:40;99902.44;;;-1.08;100.00
4085;BME280;2057;50.858;6.572;2023-12-04T05:02:10;99902.19;;;-1.11;100.00
4085;BME280;2057;50.858;6.572;2023-12-04T05:04:36;99904.69;;;-1.11;100.00
4085;BME280;2057;50.858;6.572;2023-12-04T05:07:04;99905.25;;;-0.95;100.00
4085;BME280;2057;50.858;6.572;2023-12-04T05:09:30;99899.19;;;-1.07;100.00
4085;BME280;2057;50.858;6.572;2023-12-04T05:11:55;99900.47;;;-1.02;100.00
4085;BME280;2057;50.858;6.572;2023-12-04T05:14:20;99898.50;;;-0.96;100.00
4085;BME280;2057;50.858;6.572;2023-12-04T05:16:46;99888.16;;;-1.00;100.00
4085;BME280;2057;50.858;6.572;2023-12-04T05:19:13;99890.59;;;-0.71;100.00
4085;BME280;2057;50.858;6.572;2023-12-04T05:21:41;99890.88;;;-0.68;100.00
4085;BME280;2057;50.858;6.572;2023-12-04T05:24:06;99889.78;;;-0.61;100.00
4085;BME280;2057;50.858;6.572;2023-12-04T05:26:31;99886.25;;;-0.73;100.00
4085;BME280;2057;50.858;6.572;2023-12-04T05:28:57;99876.63;;;-0.79;100.00
4085;BME280;2057;50.858;6.572;2023-12-04T05:31:24;99875.22;;;-0.86;100.00
4085;BME280;2057;50.858;6.572;2023-12-04T05:33:50;99870.66;;;-0.71;100.00
4085;BME280;2057;50.858;6.572;2023-12-04T05:36:22;99859.69;;;-0.83;100.00
4085;BME280;2057;50.858;6.572;2023-12-04T05:38:50;99860.81;;;-0.80;100.00
4085;BME280;2057;50.858;6.572;2023-12-04T05:41:26;99859.31;;;-0.77;100.00
4085;BME280;2057;50.858;6.572;2023-12-04T05:43:51;99856.22;;;-0.75;100.00
4085;BME280;2057;50.858;6.572;2023-12-04T05:46:21;99862.09;;;-0.64;100.00
4085;BME280;2057;50.858;6.572;2023-12-04T05:48:49;99870.94;;;-0.68;100.00
4085;BME280;2057;50.858;6.572;2023-12-04T05:51:14;99865.69;;;-0.71;100.00
4085;BME280;2057;50.858;6.572;2023-12-04T05:53:40;99856.47;;;-0.61;100.00
4085;BME280;2057;50.858;6.572;2023-12-04T05:56:12;99854.50;;;-0.66;100.00
4085;BME280;2057;50.858;6.572;2023-12-04T05:58:38;99854.63;;;-0.54;100.00
4085;BME280;2057;50.858;6.572;2023-12-04T06:01:05;99849.72;;;-0.73;100.00
4085;BME280;2057;50.858;6.572;2023-12-04T06:03:36;99841.50;;;-0.72;100.00
4085;BME280;2057;50.858;6.572;2023-12-04T06:06:02;99835.78;;;-0.71;100.00
4085;BME280;2057;50.858;6.572;2023-12-04T06:08:27;99830.56;;;-0.74;100.00
4085;BME280;2057;50.858;6.572;2023-12-04T06:10:55;99821.09;;;-0.68;100.00
4085;BME280;2057;50.858;6.572;2023-12-04T06:13:21;99816.47;;;-0.73;100.00
4085;BME280;2057;50.858;6.572;2023-12-04T06:15:46;99804.72;;;-0.85;100.00
4085;BME280;2057;50.858;6.572;2023-12-04T06:18:11;99804.88;;;-0.83;100.00
4085;BME280;2057;50.858;6.572;2023-12-04T06:20:39;99803.88;;;-0.85;100.00
4085;BME280;2057;50.858;6.572;2023-12-04T06:23:05;99804.13;;;-0.61;100.00
4085;BME280;2057;50.858;6.572;2023-12-04T06:25:30;99808.34;;;-0.81;100.00
4085;BME280;2057;50.858;6.572;2023-12-04T06:27:56;99785.69;;;-0.74;100.00
4085;BME280;2057;50.858;6.572;2023-12-04T06:30:26;99780.94;;;-0.71;100.00
4085;BME280;2057;50.858;6.572;2023-12-04T06:32:52;99789.16;;;-0.82;100.00
4085;BME280;2057;50.858;6.572;2023-12-04T06:35:18;99776.69;;;-0.82;100.00
4085;BME280;2057;50.858;6.572;2023-12-04T06:37:45;99777.34;;;-0.74;100.00
4085;BME280;2057;50.858;6.572;2023-12-04T06:40:11;99773.00;;;-0.67;100.00
4085;BME280;2057;50.858;6.572;2023-12-04T07:00:42;99766.75;;;-0.72;100.00
4085;BME280;2057;50.858;6.572;2023-12-04T07:03:08;99769.88;;;-0.74;100.00
4085;BME280;2057;50.858;6.572;2023-12-04T07:05:36;99761.28;;;-0.68;100.00
4085;BME280;2057;50.858;6.572;2023-12-04T07:08:02;99761.75;;;-0.72;100.00
4085;BME280;2057;50.858;6.572;2023-12-04T07:10:28;99756.03;;;-0.71;100.00
4085;BME280;2057;50.858;6.572;2023-12-04T07:12:53;99754.41;;;-0.81;100.00
4085;BME280;2057;50.858;6.572;2023-12-04T07:15:18;99754.03;;;-0.85;100.00
4085;BME280;2057;50.858;6.572;2023-12-04T07:17:44;99754.28;;;-0.82;100.00
4085;BME280;2057;50.858;6.572;2023-12-04T07:20:09;99754.03;;;-0.85;100.00
4085;BME280;2057;50.858;6.572;2023-12-04T07:22:36;99755.41;;;-0.78;100.00
4085;BME280;2057;50.858;6.572;2023-12-04T07:25:08;99752.16;;;-0.77;100.00
4085;BME280;2057;50.858;6.572;2023-12-04T07:27:33;99750.06;;;-0.83;100.00
4085;BME280;2057;50.858;6.572;2023-12-04T07:30:02;99748.31;;;-0.74;100.00
4085;BME280;2057;50.858;6.572;2023-12-04T07:32:28;99745.31;;;-0.80;100.00
4085;BME280;2057;50.858;6.572;2023-12-04T07:35:00;99740.22;;;-0.82;100.00
4085;BME280;2057;50.858;6.572;2023-12-04T07:37:28;99737.72;;;-0.82;100.00
4085;BME280;2057;50.858;6.572;2023-12-04T07:39:55;99735.97;;;-0.83;100.00
4085;BME280;2057;50.858;6.572;2023-12-04T07:42:22;99737.47;;;-0.74;100.00
4085;BME280;2057;50.858;6.572;2023-12-04T07:44:47;99736.34;;;-0.78;100.00
4085;BME280;2057;50.858;6.572;2023-12-04T07:47:12;99735.34;;;-0.80;100.00
4085;BME280;2057;50.858;6.572;2023-12-04T07:49:38;99727.38;;;-0.76;100.00
4085;BME280;2057;50.858;6.572;2023-12-04T07:52:04;99726.00;;;-0.83;100.00
4085;BME280;2057;50.858;6.572;2023-12-04T07:54:29;99728.88;;;-0.78;100.00
4085;BME280;2057;50.858;6.572;2023-12-04T07:56:56;99722.88;;;-0.70;100.00
4085;BME280;2057;50.858;6.572;2023-12-04T07:59:21;99733.84;;;-0.78;100.00
4085;BME280;2057;50.858;6.572;2023-12-04T08:01:46;99725.13;;;-0.73;100.00
4085;BME280;2057;50.858;6.572;2023-12-04T08:04:12;99721.03;;;-0.72;100.00
4085;BME280;2057;50.858;6.572;2023-12-04T08:06:37;99725.13;;;-0.63;100.00
4085;BME280;2057;50.858;6.572;2023-12-04T08:09:06;99729.88;;;-0.66;100.00
4085;BME280;2057;50.858;6.572;2023-12-04T08:11:37;99718.28;;;-0.65;100.00
4085;BME280;2057;50.858;6.572;2023-12-04T08:14:05;99710.16;;;-0.63;100.00
4085;BME280;2057;50.858;6.572;2023-12-04T08:16:31;99708.66;;;-0.50;100.00
4085;BME280;2057;50.858;6.572;2023-12-04T08:18:56;99712.03;;;-0.50;100.00
4085;BME280;2057;50.858;6.572;2023-12-04T08:21:24;99706.94;;;-0.51;100.00
4085;BME280;2057;50.858;6.572;2023-12-04T08:23:49;99704.69;;;-0.48;100.00
4085;BME280;2057;50.858;6.572;2023-12-04T08:26:23;99703.16;;;-0.46;100.00
4085;BME280;2057;50.858;6.572;2023-12-04T08:28:52;99704.91;;;-0.45;100.00
4085;BME280;2057;50.858;6.572;2023-12-04T08:31:18;99702.78;;;-0.40;100.00
4085;BME280;2057;50.858;6.572;2023-12-04T08:33:46;99697.69;;;-0.42;100.00
4085;BME280;2057;50.858;6.572;2023-12-04T08:36:12;99693.53;;;-0.31;100.00
4085;BME280;2057;50.858;6.572;2023-12-04T08:38:38;99693.44;;;-0.33;100.00
4085;BME280;2057;50.858;6.572;2023-12-04T08:41:04;99690.78;;;-0.34;100.00
4085;BME280;2057;50.858;6.572;2023-12-04T08:43:32;99691.31;;;-0.28;100.00
4085;BME280;2057;50.858;6.572;2023-12-04T08:45:57;99685.69;;;-0.36;100.00
4085;BME280;2057;50.858;6.572;2023-12-04T08:48:23;99680.06;;;-0.33;100.00
4085;BME280;2057;50.858;6.572;2023-12-04T08:50:50;99680.59;;;-0.27;100.00
4085;BME280;2057;50.858;6.572;2023-12-04T08:53:17;99673.84;;;-0.28;100.00
4085;BME280;2057;50.858;6.572;2023-12-04T08:55:42;99667.88;;;-0.30;100.00
4085;BME280;2057;50.858;6.572;2023-12-04T08:58:10;99670.72;;;-0.25;100.00
4085;BME280;2057;50.858;6.572;2023-12-04T09:00:40;99672.09;;;-0.29;100.00
4085;BME280;2057;50.858;6.572;2023-12-04T09:03:11;99663.72;;;-0.29;100.00
4085;BME280;2057;50.858;6.572;2023-12-04T09:05:37;99668.13;;;-0.27;100.00
4085;BME280;2057;50.858;6.572;2023-12-04T09:08:03;99675.19;;;-0.21;100.00
4085;BME280;2057;50.858;6.572;2023-12-04T09:10:28;99672.47;;;-0.24;100.00
4085;BME280;2057;50.858;6.572;2023-12-04T09:12:54;99670.97;;;-0.22;100.00
4085;BME280;2057;50.858;6.572;2023-12-04T09:15:19;99664.22;;;-0.23;100.00
4085;BME280;2057;50.858;6.572;2023-12-04T09:17:47;99664.34;;;-0.22;100.00
4085;BME280;2057;50.858;6.572;2023-12-04T09:20:20;99649.16;;;-0.03;100.00
4085;BME280;2057;50.858;6.572;2023-12-04T09:22:46;99648.53;;;-0.22;100.00
4085;BME280;2057;50.858;6.572;2023-12-04T09:25:15;99637.91;;;-0.20;100.00
4085;BME280;2057;50.858;6.572;2023-12-04T09:27:40;99620.66;;;-0.17;100.00
4085;BME280;2057;50.858;6.572;2023-12-04T09:30:06;99626.91;;;-0.11;100.00
4085;BME280;2057;50.858;6.572;2023-12-04T09:32:31;99623.25;;;-0.05;100.00
4085;BME280;2057;50.858;6.572;2023-12-04T09:34:59;99627.00;;;-0.10;100.00
4085;BME280;2057;50.858;6.572;2023-12-04T09:37:25;99625.03;;;-0.14;100.00
4085;BME280;2057;50.858;6.572;2023-12-04T09:39:50;99621.72;;;-0.03;100.00
4085;BME280;2057;50.858;6.572;2023-12-04T09:42:21;99613.00;;;0.03;100.00
4085;BME280;2057;50.858;6.572;2023-12-04T09:44:48;99619.97;;;-0.04;100.00
4085;BME280;2057;50.858;6.572;2023-12-04T09:47:20;99612.84;;;0.01;100.00
4085;BME280;2057;50.858;6.572;2023-12-04T09:49:45;99616.59;;;0.06;100.00
4085;BME280;2057;50.858;6.572;2023-12-04T09:52:14;99618.34;;;0.07;100.00
4085;BME280;2057;50.858;6.572;2023-12-04T09:54:40;99622.94;;;0.13;100.00
4085;BME280;2057;50.858;6.572;2023-12-04T09:57:09;99612.94;;;0.13;100.00
4085;BME280;2057;50.858;6.572;2023-12-04T09:59:34;99617.16;;;0.14;100.00
4085;BME280;2057;50.858;6.572;2023-12-04T10:02:01;99605.56;;;0.14;100.00
4085;BME280;2057;50.858;6.572;2023-12-04T10:04:26;99610.44;;;0.13;100.00
4085;BME280;2057;50.858;6.572;2023-12-04T10:06:52;99608.06;;;0.14;100.00
4085;BME280;2057;50.858;6.572;2023-12-04T10:09:18;99605.47;;;0.13;100.00
4085;BME280;2057;50.858;6.572;2023-12-04T10:11:55;99602.47;;;0.07;100.00
4085;BME280;2057;50.858;6.572;2023-12-04T10:14:22;99591.78;;;0.20;100.00
4085;BME280;2057;50.858;6.572;2023-12-04T10:16:50;99591.78;;;0.20;100.00
4085;BME280;2057;50.858;6.572;2023-12-04T10:19:25;99591.50;;;0.27;100.00
4085;BME280;2057;50.858;6.572;2023-12-04T10:21:52;99585.41;;;0.23;100.00
4085;BME280;2057;50.858;6.572;2023-12-04T10:24:34;99586.94;;;0.21;100.00
4085;BME280;2057;50.858;6.572;2023-12-04T10:27:08;99584.66;;;0.24;100.00
4085;BME280;2057;50.858;6.572;2023-12-04T10:29:47;99587.81;;;0.22;100.00
4085;BME280;2057;50.858;6.572;2023-12-04T10:32:13;99588.91;;;0.25;100.00
4085;BME280;2057;50.858;6.572;2023-12-04T10:34:46;99589.25;;;0.30;100.00
4085;BME280;2057;50.858;6.572;2023-12-04T10:37:14;99576.88;;;0.31;100.00
4085;BME280;2057;50.858;6.572;2023-12-04T10:39:50;99580.47;;;0.35;100.00
4085;BME280;2057;50.858;6.572;2023-12-04T10:42:29;99573.63;;;0.33;100.00
4085;BME280;2057;50.858;6.572;2023-12-04T10:44:56;99571.78;;;0.30;100.00
4085;BME280;2057;50.858;6.572;2023-12-04T10:47:22;99577.91;;;0.23;100.00
4085;BME280;2057;50.858;6.572;2023-12-04T10:49:54;99565.78;;;0.28;100.00
4085;BME280;2057;50.858;6.572;2023-12-04T10:52:22;99568.19;;;0.26;100.00
4085;BME280;2057;50.858;6.572;2023-12-04T10:54:48;99563.28;;;0.28;100.00
4085;BME280;2057;50.858;6.572;2023-12-04T10:57:27;99554.84;;;0.26;100.00
4085;BME280;2057;50.858;6.572;2023-12-04T11:00:06;99556.16;;;0.33;100.00
4085;BME280;2057;50.858;6.572;2023-12-04T11:02:34;99553.34;;;0.40;100.00
4085;BME280;2057;50.858;6.572;2023-12-04T11:05:07;99552.19;;;0.46;100.00
4085;BME280;2057;50.858;6.572;2023-12-04T11:07:42;99555.50;;;0.35;100.00
4085;BME280;2057;50.858;6.572;2023-12-04T11:10:19;99543.06;;;0.47;100.00
4085;BME280;2057;50.858;6.572;2023-12-04T11:12:47;99535.34;;;0.44;100.00
4085;BME280;2057;50.858;6.572;2023-12-04T11:15:21;99526.56;;;0.49;100.00
4085;BME280;2057;50.858;6.572;2023-12-04T11:17:55;99519.97;;;0.61;100.00
4085;BME280;2057;50.858;6.572;2023-12-04T11:20:26;99508.47;;;0.52;100.00
4085;BME280;2057;50.858;6.572;2023-12-04T11:22:55;99505.00;;;0.61;100.00
4085;BME280;2057;50.858;6.572;2023-12-04T11:25:23;99496.31;;;0.68;100.00
4085;BME280;2057;50.858;6.572;2023-12-04T11:27:51;99489.91;;;0.72;100.00
4085;BME280;2057;50.858;6.572;2023-12-04T11:30:17;99480.88;;;0.62;100.00
4085;BME280;2057;50.858;6.572;2023-12-04T11:32:45;99488.81;;;0.68;100.00
4085;BME280;2057;50.858;6.572;2023-12-04T11:35:15;99473.72;;;0.67;100.00
4085;BME280;2057;50.858;6.572;2023-12-04T11:37:45;99473.28;;;0.60;100.00
4085;BME280;2057;50.858;6.572;2023-12-04T11:40:12;99469.03;;;0.59;100.00
4085;BME280;2057;50.858;6.572;2023-12-04T11:42:39;99458.84;;;0.68;100.00
4085;BME280;2057;50.858;6.572;2023-12-04T11:45:10;99455.03;;;0.61;100.00
4085;BME280;2057;50.858;6.572;2023-12-04T11:50:18;99444.81;;;0.58;100.00
4085;BME280;2057;50.858;6.572;2023-12-04T11:52:46;99447.66;;;0.63;100.00
4085;BME280;2057;50.858;6.572;2023-12-04T11:55:17;99436.56;;;0.59;100.00
4085;BME280;2057;50.858;6.572;2023-12-04T11:57:42;99435.59;;;0.57;100.00
4085;BME280;2057;50.858;6.572;2023-12-04T12:05:21;99424.41;;;0.64;100.00
4085;BME280;2057;50.858;6.572;2023-12-04T12:07:47;99435.16;;;0.63;100.00
4085;BME280;2057;50.858;6.572;2023-12-04T12:10:15;99427.47;;;0.60;100.00
4085;BME280;2057;50.858;6.572;2023-12-04T12:12:43;99418.25;;;0.59;100.00
4085;BME280;2057;50.858;6.572;2023-12-04T12:15:12;99417.91;;;0.78;100.00
4085;BME280;2057;50.858;6.572;2023-12-04T12:17:39;99412.91;;;0.78;100.00
4085;BME280;2057;50.858;6.572;2023-12-04T12:20:08;99408.03;;;0.68;100.00
4085;BME280;2057;50.858;6.572;2023-12-04T12:22:35;99401.84;;;0.62;100.00
4085;BME280;2057;50.858;6.572;2023-12-04T12:25:03;99403.69;;;0.65;100.00
4085;BME280;2057;50.858;6.572;2023-12-04T12:27:32;99403.78;;;0.67;100.00
4085;BME280;2057;50.858;6.572;2023-12-04T12:29:57;99388.81;;;0.67;100.00
4085;BME280;2057;50.858;6.572;2023-12-04T12:32:23;99389.22;;;0.61;100.00
4085;BME280;2057;50.858;6.572;2023-12-04T12:34:49;99378.28;;;0.59;100.00
4085;BME280;2057;50.858;6.572;2023-12-04T12:37:17;99374.81;;;0.45;100.00
4085;BME280;2057;50.858;6.572;2023-12-04T12:39:44;99365.25;;;0.51;100.00
4085;BME280;2057;50.858;6.572;2023-12-04T12:42:31;99372.66;;;0.50;100.00
4085;BME280;2057;50.858;6.572;2023-12-04T12:45:01;99356.59;;;0.46;100.00
4085;BME280;2057;50.858;6.572;2023-12-04T12:47:27;99351.69;;;0.47;100.00
4085;BME280;2057;50.858;6.572;2023-12-04T12:49:52;99347.56;;;0.48;100.00
4085;BME280;2057;50.858;6.572;2023-12-04T12:52:20;99340.06;;;0.48;100.00
4085;BME280;2057;50.858;6.572;2023-12-04T12:54:48;99332.03;;;0.52;100.00
4085;BME280;2057;50.858;6.572;2023-12-04T12:57:16;99317.59;;;0.48;100.00
4085;BME280;2057;50.858;6.572;2023-12-04T12:59:43;99305.09;;;0.48;100.00
4085;BME280;2057;50.858;6.572;2023-12-04T13:02:10;99298.06;;;0.54;100.00
4085;BME280;2057;50.858;6.572;2023-12-04T13:04:40;99281.56;;;0.56;100.00
4085;BME280;2057;50.858;6.572;2023-12-04T13:07:06;99277.66;;;0.48;100.00
4085;BME280;2057;50.858;6.572;2023-12-04T13:09:34;99271.25;;;0.52;100.00
4085;BME280;2057;50.858;6.572;2023-12-04T13:12:07;99277.66;;;0.60;100.00
4085;BME280;2057;50.858;6.572;2023-12-04T13:14:34;99262.97;;;0.65;100.00
4085;BME280;2057;50.858;6.572;2023-12-04T13:17:03;99275.47;;;0.65;100.00
4085;BME280;2057;50.858;6.572;2023-12-04T13:19:34;99276.56;;;0.56;100.00
4085;BME280;2057;50.858;6.572;2023-12-04T13:22:01;99276.75;;;0.59;100.00
4085;BME280;2057;50.858;6.572;2023-12-04T13:24:26;99250.63;;;0.54;100.00
4085;BME280;2057;50.858;6.572;2023-12-04T13:26:52;99258.31;;;0.57;100.00
4085;BME280;2057;50.858;6.572;2023-12-04T13:29:18;99255.50;;;0.65;100.00
4085;BME280;2057;50.858;6.572;2023-12-04T13:31:44;99243.75;;;0.64;100.00
4085;BME280;2057;50.858;6.572;2023-12-04T13:34:11;99245.50;;;0.65;100.00
4085;BME280;2057;50.858;6.572;2023-12-04T13:36:37;99248.09;;;0.66;100.00
4085;BME280;2057;50.858;6.572;2023-12-04T13:39:07;99238.00;;;0.65;100.00